createdAt,value
2018-05-19T00:00:48.392Z,63.0405
2018-05-19T00:01:53.545Z,62.5358
2018-05-19T00:02:58.984Z,61.4498
2018-05-19T00:04:04.584Z,63.7935
2018-05-19T00:05:10.019Z,63.0405
2018-05-19T00:06:15.174Z,63.0405
2018-05-19T00:07:20.870Z,63.7935
2018-05-19T00:08:26.303Z,63.5425
2018-05-19T00:09:31.704Z,63.5425
2018-05-19T00:10:36.874Z,63.5425
2018-05-19T00:11:42.063Z,63.7935
2018-05-19T00:12:47.197Z,63.2915
2018-05-19T00:13:52.356Z,63.5425
2018-05-19T00:14:57.788Z,64.0445
2018-05-19T00:16:03.541Z,63.5425
2018-05-19T00:17:08.973Z,64.462
2018-05-19T00:18:13.854Z,63.7935
2018-05-19T00:19:19.536Z,64.0445
2018-05-19T00:20:24.682Z,63.2915
2018-05-19T00:21:29.995Z,63.7935
2018-05-19T00:22:35.425Z,63.5425
2018-05-19T00:23:40.584Z,63.7935
2018-05-19T00:24:46.199Z,63.5425
2018-05-19T00:25:51.633Z,63.7935
2018-05-19T00:26:56.811Z,63.5425
2018-05-19T00:28:02.266Z,64.0445
2018-05-19T00:29:07.410Z,63.2915
2018-05-19T00:30:12.300Z,63.5425
2018-05-19T00:31:17.745Z,63.0405
2018-05-19T00:32:23.194Z,63.7935
2018-05-19T00:33:29.879Z,64.2956
2018-05-19T00:34:35.043Z,62.5358
2018-05-19T00:35:40.200Z,63.7935
2018-05-19T00:36:46.033Z,63.0405
2018-05-19T00:37:51.465Z,63.2915
2018-05-19T00:38:56.345Z,63.7935
2018-05-19T00:40:01.801Z,63.5425
2018-05-19T00:41:06.101Z,64.0445
2018-05-19T00:42:11.285Z,63.2915
2018-05-19T00:43:16.739Z,62.7894
2018-05-19T00:44:21.605Z,63.5425
2018-05-19T00:45:41.521Z,63.2915
2018-05-19T00:46:46.674Z,63.7935
2018-05-19T00:47:51.548Z,63.5425
2018-05-19T00:48:56.815Z,63.7935
2018-05-19T00:50:01.986Z,63.7935
2018-05-19T00:51:06.859Z,62.7894
2018-05-19T00:52:12.540Z,62.7894
2018-05-19T00:53:17.701Z,63.2915
2018-05-19T00:54:22.295Z,63.2915
2018-05-19T00:55:27.831Z,64.0445
2018-05-19T00:56:32.989Z,63.5425
2018-05-19T00:57:38.841Z,64.0445
2018-05-19T00:58:44.296Z,62.5358
2018-05-19T00:59:49.449Z,62.7894
2018-05-19T01:00:55.144Z,63.0405
2018-05-19T01:01:59.725Z,63.0405
2018-05-19T01:03:05.153Z,63.0405
2018-05-19T01:04:10.817Z,63.0405
2018-05-19T01:05:16.237Z,63.7935
2018-05-19T01:06:21.430Z,63.2915
2018-05-19T01:07:27.141Z,63.2915
2018-05-19T01:08:32.286Z,63.7935
2018-05-19T01:09:38.075Z,64.2956
2018-05-19T01:10:43.488Z,63.5425
2018-05-19T01:11:48.345Z,63.2915
2018-05-19T01:12:53.568Z,63.7935
2018-05-19T01:13:59.006Z,64.0445
2018-05-19T01:15:04.437Z,63.7935
2018-05-19T01:16:09.971Z,63.5425
2018-05-19T01:17:15.405Z,63.5425
2018-05-19T01:18:20.357Z,64.0445
2018-05-19T01:19:25.761Z,63.5425
2018-05-19T01:20:30.915Z,63.7935
2018-05-19T01:21:36.404Z,64.2956
2018-05-19T01:22:41.841Z,63.7935
2018-05-19T01:23:46.989Z,63.7935
2018-05-19T01:24:52.350Z,63.7935
2018-05-19T01:25:57.501Z,63.7935
2018-05-19T01:27:02.105Z,64.2956
2018-05-19T01:28:07.137Z,64.0445
2018-05-19T01:29:12.298Z,63.7935
2018-05-19T01:30:17.963Z,63.7935
2018-05-19T01:31:22.721Z,64.0445
2018-05-19T01:32:27.868Z,63.7935
2018-05-19T01:33:33.653Z,63.7935
2018-05-19T01:34:39.099Z,63.5425
2018-05-19T01:35:44.535Z,63.7935
2018-05-19T01:36:50.369Z,64.0445
2018-05-19T01:37:55.824Z,64.2956
2018-05-19T01:39:00.717Z,63.7935
2018-05-19T01:40:06.317Z,63.7935
2018-05-19T01:41:10.913Z,63.5425
2018-05-19T01:42:16.072Z,64.2956
2018-05-19T01:43:21.618Z,63.7935
2018-05-19T01:44:26.479Z,63.5425
2018-05-19T01:45:31.697Z,62.7894
2018-05-19T01:46:36.850Z,63.2915
2018-05-19T01:47:42.298Z,62.7894
2018-05-19T01:48:47.802Z,63.5425
2018-05-19T01:49:52.958Z,62.5358
2018-05-19T01:50:58.117Z,62.2847
2018-05-19T01:52:03.408Z,63.2915
2018-05-19T01:53:08.275Z,63.0405
2018-05-19T01:54:13.147Z,63.0405
2018-05-19T01:55:18.977Z,62.5358
2018-05-19T01:56:24.124Z,63.0405
2018-05-19T01:57:30.004Z,62.7894
2018-05-19T01:58:35.154Z,63.2915
2018-05-19T01:59:40.311Z,63.2915
2018-05-19T02:00:45.448Z,63.5425
2018-05-19T02:01:50.887Z,62.5358
2018-05-19T02:02:56.334Z,62.7894
2018-05-19T02:04:01.649Z,62.7894
2018-05-19T02:05:06.248Z,62.5358
2018-05-19T02:06:11.443Z,62.5358
2018-05-19T02:07:16.590Z,63.2915
2018-05-19T02:08:22.021Z,62.7894
2018-05-19T02:09:27.573Z,63.7935
2018-05-19T02:10:31.868Z,62.7894
2018-05-19T02:11:37.302Z,63.0405
2018-05-19T02:12:43.069Z,63.2915
2018-05-19T02:13:48.501Z,62.5358
2018-05-19T02:14:53.358Z,62.5358
2018-05-19T02:15:59.089Z,62.0337
2018-05-19T02:17:03.400Z,62.7894
2018-05-19T02:18:08.296Z,62.2847
2018-05-19T02:19:13.251Z,62.7894
2018-05-19T02:20:18.706Z,62.2847
2018-05-19T02:21:23.855Z,63.2915
2018-05-19T02:22:44.184Z,62.7894
2018-05-19T02:23:49.347Z,63.2915
2018-05-19T02:24:55.026Z,62.7894
2018-05-19T02:26:00.187Z,63.0405
2018-05-19T02:27:05.344Z,63.2915
2018-05-19T02:28:10.596Z,63.2915
2018-05-19T02:29:15.475Z,62.7894
2018-05-19T02:30:21.074Z,62.5358
2018-05-19T02:31:26.789Z,63.0405
2018-05-19T02:32:32.220Z,62.7894
2018-05-19T02:33:37.909Z,62.5358
2018-05-19T02:34:43.055Z,62.5358
2018-05-19T02:35:48.497Z,62.7894
2018-05-19T02:36:53.946Z,63.2915
2018-05-19T02:37:59.093Z,62.7894
2018-05-19T02:39:03.693Z,62.2847
2018-05-19T02:40:09.430Z,62.7894
2018-05-19T02:41:14.876Z,63.7935
2018-05-19T02:42:20.307Z,62.7894
2018-05-19T02:43:26.049Z,63.2915
2018-05-19T02:44:31.234Z,62.7894
2018-05-19T02:45:36.474Z,62.7894
2018-05-19T02:46:41.911Z,62.5358
2018-05-19T02:47:47.074Z,63.2915
2018-05-19T02:48:52.238Z,63.2915
2018-05-19T02:49:57.116Z,63.7935
2018-05-19T02:51:02.008Z,64.0445
2018-05-19T02:52:07.557Z,63.7935
2018-05-19T02:53:12.712Z,63.5425
2018-05-19T02:54:17.858Z,63.0405
2018-05-19T02:55:23.250Z,63.7935
2018-05-19T02:56:28.123Z,63.7935
2018-05-19T02:57:33.882Z,63.5425
2018-05-19T02:58:38.778Z,64.2956
2018-05-19T02:59:43.929Z,63.0405
2018-05-19T03:00:48.799Z,63.7935
2018-05-19T03:01:53.668Z,62.5358
2018-05-19T03:02:58.821Z,63.0405
2018-05-19T03:04:03.431Z,62.5358
2018-05-19T03:05:08.583Z,62.7894
2018-05-19T03:06:13.474Z,62.5358
2018-05-19T03:07:18.797Z,62.2847
2018-05-19T03:08:23.950Z,62.2847
2018-05-19T03:09:29.506Z,62.7894
2018-05-19T03:10:34.392Z,62.7894
2018-05-19T03:11:39.832Z,63.2915
2018-05-19T03:12:45.618Z,62.2847
2018-05-19T03:13:50.834Z,63.2915
2018-05-19T03:14:56.268Z,63.0405
2018-05-19T03:16:01.713Z,63.2915
2018-05-19T03:17:06.509Z,63.0405
2018-05-19T03:18:11.960Z,62.7894
2018-05-19T03:19:17.467Z,63.0405
2018-05-19T03:20:22.342Z,62.5358
2018-05-19T03:21:28.257Z,62.3693
2018-05-19T03:22:33.414Z,62.5358
2018-05-19T03:23:38.583Z,62.2847
2018-05-19T03:24:44.472Z,62.2847
2018-05-19T03:25:49.627Z,61.4498
2018-05-19T03:26:54.781Z,62.5358
2018-05-19T03:28:00.187Z,62.1183
2018-05-19T03:29:05.062Z,62.2847
2018-05-19T03:30:10.511Z,62.7894
2018-05-19T03:31:15.912Z,61.1961
2018-05-19T03:32:21.380Z,60.6941
2018-05-19T03:33:27.812Z,61.4498
2018-05-19T03:34:32.684Z,62.2847
2018-05-19T03:35:37.831Z,61.1961
2018-05-19T03:36:43.333Z,61.7008
2018-05-19T03:37:48.532Z,61.4498
2018-05-19T03:38:53.969Z,61.7008
2018-05-19T03:39:59.853Z,60.9451
2018-05-19T03:41:04.441Z,60.9451
2018-05-19T03:42:09.641Z,60.9451
2018-05-19T03:43:15.371Z,60.9451
2018-05-19T03:44:20.530Z,60.9451
2018-05-19T03:45:40.733Z,61.4498
2018-05-19T03:46:45.891Z,60.9451
2018-05-19T03:47:51.321Z,60.9451
2018-05-19T03:48:57.201Z,60.9451
2018-05-19T03:50:02.353Z,60.6941
2018-05-19T03:51:07.234Z,60.4431
2018-05-19T03:52:12.737Z,59.7745
2018-05-19T03:53:17.890Z,60.9451
2018-05-19T03:54:23.052Z,60.9451
2018-05-19T03:55:28.608Z,60.4431
2018-05-19T03:56:34.039Z,60.192
2018-05-19T03:57:39.919Z,59.941
2018-05-19T03:58:45.078Z,60.6941
2018-05-19T03:59:50.508Z,59.7745
2018-05-19T04:00:56.337Z,59.0215
2018-05-19T04:02:01.523Z,59.0215
2018-05-19T04:03:06.399Z,60.192
2018-05-19T04:04:11.848Z,60.192
2018-05-19T04:05:16.734Z,59.941
2018-05-19T04:06:22.191Z,59.0215
2018-05-19T04:07:27.967Z,59.7745
2018-05-19T04:08:33.399Z,59.5235
2018-05-19T04:09:38.842Z,59.7745
2018-05-19T04:10:43.744Z,59.5235
2018-05-19T04:11:49.185Z,60.0256
2018-05-19T04:12:54.920Z,59.2725
2018-05-19T04:14:00.185Z,59.5235
2018-05-19T04:15:05.616Z,59.2725
2018-05-19T04:16:11.402Z,59.0215
2018-05-19T04:17:16.853Z,59.5235
2018-05-19T04:18:22.314Z,58.7705
2018-05-19T04:19:28.065Z,59.2725
2018-05-19T04:20:33.218Z,59.0215
2018-05-19T04:21:38.898Z,58.5168
2018-05-19T04:22:44.335Z,57.7637
2018-05-19T04:23:49.793Z,58.2684
2018-05-19T04:24:54.998Z,56.8442
2018-05-19T04:26:00.154Z,57.7637
2018-05-19T04:27:05.312Z,57.7637
2018-05-19T04:28:11.047Z,58.0148
2018-05-19T04:29:16.476Z,57.3463
2018-05-19T04:30:21.641Z,57.5973
2018-05-19T04:31:27.235Z,57.5973
2018-05-19T04:32:32.100Z,57.5973
2018-05-19T04:33:37.957Z,57.7637
2018-05-19T04:34:43.390Z,57.5973
2018-05-19T04:35:48.532Z,57.5973
2018-05-19T04:36:53.657Z,58.0148
2018-05-19T04:37:58.577Z,57.5973
2018-05-19T04:39:03.130Z,57.3463
2018-05-19T04:40:08.633Z,57.3463
2018-05-19T04:41:14.064Z,56.3422
2018-05-19T04:42:19.512Z,58.2684
2018-05-19T04:43:25.242Z,57.7637
2018-05-19T04:44:30.723Z,57.3463
2018-05-19T04:45:35.802Z,57.7637
2018-05-19T04:46:41.232Z,57.5973
2018-05-19T04:47:46.662Z,57.3463
2018-05-19T04:48:52.115Z,56.8442
2018-05-19T04:49:57.569Z,57.0952
2018-05-19T04:51:02.735Z,57.0952
2018-05-19T04:52:08.134Z,57.0952
2018-05-19T04:53:13.573Z,57.0952
2018-05-19T04:54:19.038Z,56.5932
2018-05-19T04:55:24.633Z,57.5973
2018-05-19T04:56:29.800Z,56.0912
2018-05-19T04:57:35.216Z,56.5932
2018-05-19T04:58:40.710Z,56.8442
2018-05-19T04:59:46.151Z,56.3422
2018-05-19T05:00:51.884Z,56.8442
2018-05-19T05:01:57.335Z,56.3422
2018-05-19T05:03:02.801Z,56.0912
2018-05-19T05:04:07.929Z,56.5932
2018-05-19T05:05:12.749Z,56.8442
2018-05-19T05:06:18.194Z,56.8442
2018-05-19T05:07:23.886Z,56.0912
2018-05-19T05:08:28.762Z,56.8442
2018-05-19T05:09:33.884Z,57.0952
2018-05-19T05:10:39.310Z,56.5932
2018-05-19T05:11:44.743Z,55.922
2018-05-19T05:12:50.302Z,56.0912
2018-05-19T05:13:55.314Z,56.3422
2018-05-19T05:15:00.926Z,56.0912
2018-05-19T05:16:06.708Z,55.6737
2018-05-19T05:17:12.137Z,55.922
2018-05-19T05:18:17.575Z,55.2535
2018-05-19T05:19:23.406Z,55.922
2018-05-19T05:20:28.314Z,55.0025
2018-05-19T05:21:33.542Z,54.7515
2018-05-19T05:22:38.139Z,54.7515
2018-05-19T05:23:43.293Z,55.0025
2018-05-19T05:24:49.041Z,54.5005
2018-05-19T05:25:54.539Z,55.0025
2018-05-19T05:26:59.826Z,55.0025
2018-05-19T05:28:05.013Z,55.4226
2018-05-19T05:29:09.897Z,54.5005
2018-05-19T05:30:14.478Z,55.2535
2018-05-19T05:31:20.309Z,55.4226
2018-05-19T05:32:25.742Z,54.5005
2018-05-19T05:33:31.258Z,55.0025
2018-05-19T05:34:36.696Z,55.4226
2018-05-19T05:35:41.842Z,54.7515
2018-05-19T05:36:47.727Z,54.5005
2018-05-19T05:37:53.171Z,54.7515
2018-05-19T05:38:58.323Z,53.9984
2018-05-19T05:40:03.262Z,54.2495
2018-05-19T05:41:07.572Z,53.9984
2018-05-19T05:42:13.008Z,53.9984
2018-05-19T05:43:19.218Z,54.5005
2018-05-19T05:44:24.191Z,53.9984
2018-05-19T05:45:29.470Z,53.9984
2018-05-19T05:46:34.653Z,53.9984
2018-05-19T05:47:40.090Z,54.5005
2018-05-19T05:48:45.780Z,53.2454
2018-05-19T05:49:50.941Z,53.7474
2018-05-19T05:50:55.519Z,54.2495
2018-05-19T05:52:00.974Z,53.2454
2018-05-19T05:53:06.133Z,53.2454
2018-05-19T05:54:11.586Z,53.4964
2018-05-19T05:55:17.329Z,53.2454
2018-05-19T05:56:22.474Z,54.2495
2018-05-19T05:57:28.357Z,53.7474
2018-05-19T05:58:33.527Z,52.8279
2018-05-19T05:59:38.950Z,53.2454
2018-05-19T06:00:44.697Z,52.8279
2018-05-19T06:01:49.837Z,52.9944
2018-05-19T06:02:55.005Z,52.9944
2018-05-19T06:04:00.615Z,53.2454
2018-05-19T06:05:05.769Z,52.5769
2018-05-19T06:06:10.734Z,52.7433
2018-05-19T06:07:16.497Z,52.9944
2018-05-19T06:08:21.927Z,52.0748
2018-05-19T06:09:26.804Z,52.0748
2018-05-19T06:10:31.746Z,52.5769
2018-05-19T06:11:36.955Z,52.7433
2018-05-19T06:12:42.788Z,52.9944
2018-05-19T06:13:47.360Z,53.2454
2018-05-19T06:14:52.793Z,52.9944
2018-05-19T06:15:58.581Z,53.2454
2018-05-19T06:17:03.447Z,52.0748
2018-05-19T06:18:08.321Z,53.7474
2018-05-19T06:19:13.578Z,52.9944
2018-05-19T06:20:19.093Z,52.9944
2018-05-19T06:22:44.809Z,52.7433
2018-05-19T06:23:49.973Z,51.8238
2018-05-19T06:24:54.915Z,52.3258
2018-05-19T06:26:00.507Z,52.3258
2018-05-19T06:27:05.372Z,52.0748
2018-05-19T06:28:10.973Z,52.2413
2018-05-19T06:29:16.403Z,52.2413
2018-05-19T06:30:21.851Z,52.0748
2018-05-19T06:31:27.103Z,52.4923
2018-05-19T06:32:32.263Z,52.0748
2018-05-19T06:33:38.099Z,51.8238
2018-05-19T06:34:43.385Z,53.2454
2018-05-19T06:35:49.033Z,52.4923
2018-05-19T06:36:54.154Z,52.9944
2018-05-19T06:37:59.584Z,51.5728
2018-05-19T06:39:04.186Z,51.0707
2018-05-19T06:40:09.323Z,52.2413
2018-05-19T06:41:14.752Z,52.7433
2018-05-19T06:42:19.932Z,52.4923
2018-05-19T06:43:25.664Z,51.8238
2018-05-19T06:44:31.094Z,51.0707
2018-05-19T06:45:36.134Z,51.3218
2018-05-19T06:46:41.569Z,51.9903
2018-05-19T06:47:46.716Z,51.9903
2018-05-19T06:48:51.569Z,51.3218
2018-05-19T06:49:56.733Z,51.0707
2018-05-19T06:51:02.168Z,51.5728
2018-05-19T06:52:07.964Z,51.0707
2018-05-19T06:53:13.403Z,51.9903
2018-05-19T06:54:18.555Z,51.9903
2018-05-19T06:55:24.101Z,51.9903
2018-05-19T06:56:29.274Z,52.2413
2018-05-19T06:57:35.244Z,51.7393
2018-05-19T06:58:40.115Z,51.0707
2018-05-19T06:59:45.559Z,51.3218
2018-05-19T07:00:51.255Z,51.9903
2018-05-19T07:01:56.413Z,51.0707
2018-05-19T07:03:01.842Z,51.5728
2018-05-19T07:04:06.739Z,51.3218
2018-05-19T07:05:11.658Z,50.8197
2018-05-19T07:06:16.518Z,51.5728
2018-05-19T07:07:21.694Z,51.9903
2018-05-19T07:08:26.859Z,50.5687
2018-05-19T07:09:32.617Z,50.5687
2018-05-19T07:10:38.122Z,50.8197
2018-05-19T07:11:43.323Z,51.3218
2018-05-19T07:12:48.554Z,50.5687
2018-05-19T07:13:53.990Z,50.8197
2018-05-19T07:14:59.238Z,51.0707
2018-05-19T07:16:04.428Z,51.0707
2018-05-19T07:17:09.015Z,51.3218
2018-05-19T07:18:14.478Z,51.4882
2018-05-19T07:19:19.771Z,51.4882
2018-05-19T07:20:25.294Z,51.0707
2018-05-19T07:21:31.084Z,51.0707
2018-05-19T07:22:36.247Z,50.5687
2018-05-19T07:23:41.110Z,51.4882
2018-05-19T07:24:46.676Z,50.5687
2018-05-19T07:25:51.558Z,50.8197
2018-05-19T07:26:56.703Z,51.0707
2018-05-19T07:28:02.060Z,50.5687
2018-05-19T07:29:06.658Z,51.3218
2018-05-19T07:30:11.535Z,50.3177
2018-05-19T07:31:17.120Z,51.2372
2018-05-19T07:32:22.555Z,50.8197
2018-05-19T07:33:28.334Z,50.3177
2018-05-19T07:34:33.288Z,51.0707
2018-05-19T07:35:38.635Z,50.8197
2018-05-19T07:36:44.363Z,50.8197
2018-05-19T07:37:49.505Z,49.8156
2018-05-19T07:38:54.934Z,50.5687
2018-05-19T07:40:00.113Z,50.8197
2018-05-19T07:41:05.271Z,50.5687
2018-05-19T07:42:10.413Z,50.8197
2018-05-19T07:43:15.818Z,50.8197
2018-05-19T07:44:21.006Z,51.0707
2018-05-19T07:45:41.261Z,50.3177
2018-05-19T07:46:46.421Z,50.5687
2018-05-19T07:47:51.930Z,50.5687
2018-05-19T07:48:57.629Z,50.9862
2018-05-19T07:50:02.242Z,50.5687
2018-05-19T07:51:07.118Z,50.9862
2018-05-19T07:52:12.619Z,50.0667
2018-05-19T07:53:18.050Z,49.8156
2018-05-19T07:54:23.212Z,50.5687
2018-05-19T07:55:28.938Z,49.8156
2018-05-19T07:56:33.847Z,50.3177
2018-05-19T07:57:39.577Z,50.7352
2018-05-19T07:58:45.018Z,49.8156
2018-05-19T07:59:50.460Z,50.5687
2018-05-19T08:00:55.599Z,50.0667
2018-05-19T08:02:01.047Z,50.5687
2018-05-19T08:03:05.641Z,50.9862
2018-05-19T08:04:10.585Z,50.7352
2018-05-19T08:05:15.830Z,51.2372
2018-05-19T08:06:20.963Z,50.3177
2018-05-19T08:07:26.715Z,50.4841
2018-05-19T08:08:31.865Z,50.9862
2018-05-19T08:09:36.983Z,50.7352
2018-05-19T08:10:42.136Z,50.7352
2018-05-19T08:11:47.596Z,50.7352
2018-05-19T08:12:53.148Z,51.2372
2018-05-19T08:13:58.609Z,50.4841
2018-05-19T08:15:03.207Z,50.9862
2018-05-19T08:16:08.181Z,50.7352
2018-05-19T08:17:13.333Z,51.4882
2018-05-19T08:18:18.762Z,50.2331
2018-05-19T08:19:24.209Z,52.2413
2018-05-19T08:20:29.404Z,51.2372
2018-05-19T08:21:34.812Z,51.2372
2018-05-19T08:22:39.958Z,51.2372
2018-05-19T08:23:44.836Z,51.2372
2018-05-19T08:24:50.717Z,51.9903
2018-05-19T08:25:55.885Z,51.7393
2018-05-19T08:27:01.315Z,51.9903
2018-05-19T08:28:06.230Z,51.9903
2018-05-19T08:29:11.382Z,52.4923
2018-05-19T08:30:15.964Z,52.2413
2018-05-19T08:31:20.843Z,51.4882
2018-05-19T08:32:26.286Z,51.4882
2018-05-19T08:33:31.854Z,51.7393
2018-05-19T08:34:36.750Z,52.2413
2018-05-19T08:35:41.629Z,51.7393
2018-05-19T08:36:47.088Z,51.9903
2018-05-19T08:37:51.956Z,51.7393
2018-05-19T08:38:57.393Z,51.7393
2018-05-19T08:40:02.289Z,52.2413
2018-05-19T08:41:07.002Z,51.4882
2018-05-19T08:42:12.307Z,51.9903
2018-05-19T08:43:17.771Z,52.2413
2018-05-19T08:44:22.910Z,51.7393
2018-05-19T08:45:28.603Z,51.7393
2018-05-19T08:46:33.471Z,51.7393
2018-05-19T08:47:38.914Z,52.2413
2018-05-19T08:48:44.508Z,51.7393
2018-05-19T08:49:49.678Z,52.4078
2018-05-19T08:50:54.843Z,52.2413
2018-05-19T08:52:00.250Z,51.9903
2018-05-19T08:53:04.845Z,51.9903
2018-05-19T08:54:10.282Z,51.7393
2018-05-19T08:55:15.401Z,52.2413
2018-05-19T08:56:20.842Z,51.7393
2018-05-19T08:57:26.848Z,52.2413
2018-05-19T08:58:32.296Z,51.7393
2018-05-19T08:59:37.733Z,52.2413
2018-05-19T09:00:43.870Z,51.7393
2018-05-19T09:01:49.014Z,51.7393
2018-05-19T09:02:54.454Z,51.9903
2018-05-19T09:03:59.686Z,50.7352
2018-05-19T09:05:04.006Z,51.4882
2018-05-19T09:06:08.594Z,51.4882
2018-05-19T09:07:13.528Z,51.7393
2018-05-19T09:08:18.961Z,50.9862
2018-05-19T09:10:44.954Z,51.2372
2018-05-19T09:11:50.116Z,51.4882
2018-05-19T09:12:55.262Z,51.4882
2018-05-19T09:14:00.195Z,52.4078
2018-05-19T09:15:05.403Z,51.4882
2018-05-19T09:16:10.283Z,51.9084
2018-05-19T09:17:15.429Z,51.9084
2018-05-19T09:18:20.870Z,51.9084
2018-05-19T09:19:26.614Z,51.7393
2018-05-19T09:20:31.789Z,52.1567
2018-05-19T09:21:37.242Z,52.9124
2018-05-19T09:22:42.901Z,52.1567
2018-05-19T09:23:47.780Z,52.4078
2018-05-19T09:24:53.773Z,52.6588
2018-05-19T09:25:58.925Z,52.6588
2018-05-19T09:27:03.219Z,52.9124
2018-05-19T09:28:08.449Z,53.4118
2018-05-19T09:29:13.882Z,52.4078
2018-05-19T09:30:19.041Z,51.9084
2018-05-19T09:31:24.534Z,52.1567
2018-05-19T09:32:29.966Z,52.4078
2018-05-19T09:33:35.228Z,52.1567
2018-05-19T09:34:40.659Z,53.1608
2018-05-19T09:35:46.284Z,52.4078
2018-05-19T09:36:52.277Z,52.6588
2018-05-19T09:37:57.425Z,52.1567
2018-05-19T09:39:02.027Z,52.4078
2018-05-19T09:40:07.157Z,52.6588
2018-05-19T09:41:12.379Z,51.6573
2018-05-19T09:42:17.544Z,52.6588
2018-05-19T09:43:22.722Z,52.4078
2018-05-19T09:44:27.608Z,52.1567
2018-05-19T09:45:33.521Z,52.4078
2018-05-19T09:46:38.683Z,52.9124
2018-05-19T09:47:44.221Z,52.1567
2018-05-19T09:48:50.342Z,52.4078
2018-05-19T09:49:55.775Z,52.4078
2018-05-19T09:51:00.934Z,51.9084
2018-05-19T09:52:06.501Z,51.9084
2018-05-19T09:53:11.759Z,52.1567
2018-05-19T09:54:16.695Z,53.1608
2018-05-19T09:55:22.590Z,52.6588
2018-05-19T09:56:27.728Z,53.4118
2018-05-19T09:57:33.201Z,52.9124
2018-05-19T09:58:38.082Z,52.6588
2018-05-19T09:59:43.531Z,52.6588
2018-05-19T10:00:49.102Z,53.1608
2018-05-19T10:01:54.259Z,53.6629
2018-05-19T10:02:59.479Z,53.4118
2018-05-19T10:04:04.722Z,54.083
2018-05-19T10:05:10.109Z,53.832
2018-05-19T10:06:15.332Z,52.6588
2018-05-19T10:07:20.730Z,53.1608
2018-05-19T10:08:25.616Z,53.6629
2018-05-19T10:09:31.453Z,53.4118
2018-05-19T10:10:36.332Z,53.1608
2018-05-19T10:11:42.277Z,53.832
2018-05-19T10:12:47.828Z,53.1608
2018-05-19T10:13:52.982Z,53.5809
2018-05-19T10:14:57.851Z,53.1608
2018-05-19T10:16:03.300Z,53.832
2018-05-19T10:17:08.298Z,53.1608
2018-05-19T10:18:13.903Z,52.6588
2018-05-19T10:19:19.309Z,53.4118
2018-05-19T10:20:23.910Z,53.832
2018-05-19T10:21:29.358Z,54.334
2018-05-19T10:22:34.515Z,53.6629
2018-05-19T10:23:39.665Z,53.832
2018-05-19T10:24:45.551Z,53.4118
2018-05-19T10:25:51.009Z,53.832
2018-05-19T10:26:55.864Z,54.585
2018-05-19T10:28:01.258Z,53.5809
2018-05-19T10:29:06.144Z,53.5809
2018-05-19T10:30:11.021Z,53.4118
2018-05-19T10:31:16.475Z,54.083
2018-05-19T10:32:21.644Z,54.334
2018-05-19T10:33:27.233Z,54.083
2018-05-19T10:34:32.667Z,53.832
2018-05-19T10:35:38.333Z,54.585
2018-05-19T10:36:43.318Z,53.5809
2018-05-19T10:37:48.670Z,53.5809
2018-05-19T10:38:53.270Z,54.083
2018-05-19T10:39:59.089Z,53.5809
2018-05-19T10:41:03.698Z,54.334
2018-05-19T10:42:09.152Z,53.832
2018-05-19T10:43:14.758Z,53.832
2018-05-19T10:44:20.215Z,53.5809
2018-05-19T10:45:25.985Z,54.083
2018-05-19T10:46:31.150Z,54.585
2018-05-19T10:47:36.317Z,53.5809
2018-05-19T10:48:42.320Z,53.832
2018-05-19T10:49:47.465Z,54.334
2018-05-19T10:50:52.629Z,54.836
2018-05-19T10:51:58.134Z,54.083
2018-05-19T10:53:02.731Z,53.5809
2018-05-19T10:54:07.033Z,53.1608
2018-05-19T10:55:12.765Z,53.1608
2018-05-19T10:56:18.212Z,53.5809
2018-05-19T10:57:23.362Z,53.3299
2018-05-19T10:58:29.342Z,52.9124
2018-05-19T10:59:34.217Z,53.1608
2018-05-19T11:00:39.960Z,52.9124
2018-05-19T11:01:45.106Z,53.4118
2018-05-19T11:02:50.559Z,52.4078
2018-05-19T11:03:55.723Z,53.3299
2018-05-19T11:05:00.581Z,54.083
2018-05-19T11:06:05.453Z,53.5809
2018-05-19T11:07:10.948Z,54.083
2018-05-19T11:08:16.181Z,53.3299
2018-05-19T11:09:21.283Z,53.3299
2018-05-19T11:10:27.064Z,53.832
2018-05-19T11:11:32.238Z,53.1608
2018-05-19T11:12:37.812Z,53.1608
2018-05-19T11:13:42.671Z,53.1608
2018-05-19T11:14:47.548Z,53.832
2018-05-19T11:15:52.633Z,52.9124
2018-05-19T11:16:58.069Z,52.6588
2018-05-19T11:18:02.942Z,52.4078
2018-05-19T11:19:08.938Z,52.6588
2018-05-19T11:20:13.537Z,52.9124
2018-05-19T11:21:18.686Z,53.3299
2018-05-19T11:22:23.831Z,53.1608
2018-05-19T11:23:28.702Z,53.832
2018-05-19T11:24:34.452Z,53.1608
2018-05-19T11:25:39.707Z,53.5809
2018-05-19T11:26:44.653Z,53.0789
2018-05-19T11:27:50.054Z,53.0789
2018-05-19T11:28:55.215Z,53.832
2018-05-19T11:30:00.421Z,53.832
2018-05-19T11:31:05.930Z,53.832
2018-05-19T11:32:11.371Z,53.0789
2018-05-19T11:33:16.518Z,54.585
2018-05-19T11:34:22.072Z,54.083
2018-05-19T11:35:27.246Z,53.832
2018-05-19T11:36:32.414Z,53.3299
2018-05-19T11:37:37.845Z,54.334
2018-05-19T11:38:43.035Z,54.585
2018-05-19T11:39:48.539Z,54.836
2018-05-19T11:40:53.694Z,54.083
2018-05-19T11:41:58.838Z,54.334
2018-05-19T11:43:03.809Z,54.585
2018-05-19T11:44:08.676Z,54.334
2018-05-19T11:45:13.831Z,54.585
2018-05-19T11:46:18.989Z,54.334
2018-05-19T11:47:23.568Z,54.836
2018-05-19T11:48:29.614Z,54.585
2018-05-19T11:49:34.491Z,55.3381
2018-05-19T11:50:39.779Z,54.836
2018-05-19T11:51:45.411Z,54.083
2018-05-19T11:52:50.572Z,54.585
2018-05-19T11:53:55.464Z,52.9124
2018-05-19T11:55:00.870Z,53.832
2018-05-19T11:56:05.773Z,54.334
2018-05-19T11:57:10.607Z,54.083
2018-05-19T11:58:16.110Z,54.334
2018-05-19T11:59:21.552Z,54.083
2018-05-19T12:00:41.130Z,54.334
2018-05-19T12:01:46.568Z,54.334
2018-05-19T12:02:51.815Z,54.585
2018-05-19T12:03:56.507Z,54.836
2018-05-19T12:05:01.670Z,54.585
2018-05-19T12:06:06.817Z,54.836
2018-05-19T12:07:12.331Z,55.3381
2018-05-19T12:08:17.483Z,54.836
2018-05-19T12:09:22.921Z,54.836
2018-05-19T12:10:28.735Z,55.3381
2018-05-19T12:11:34.173Z,54.585
2018-05-19T12:12:39.969Z,54.083
2018-05-19T12:13:45.399Z,54.334
2018-05-19T12:14:50.831Z,54.334
2018-05-19T12:15:56.619Z,54.083
2018-05-19T12:17:01.786Z,54.334
2018-05-19T12:18:06.668Z,54.836
2018-05-19T12:19:12.414Z,55.3381
2018-05-19T12:20:17.565Z,54.585
2018-05-19T12:21:22.736Z,54.836
2018-05-19T12:22:28.471Z,54.585
2018-05-19T12:23:33.628Z,54.585
2018-05-19T12:24:38.625Z,53.832
2018-05-19T12:25:43.548Z,55.0871
2018-05-19T12:26:48.992Z,55.0871
2018-05-19T12:27:54.256Z,54.836
2018-05-19T12:28:59.032Z,55.3381
2018-05-19T12:30:03.755Z,55.0871
2018-05-19T12:31:09.522Z,55.0871
2018-05-19T12:32:14.397Z,55.0871
2018-05-19T12:33:19.566Z,55.3381
2018-05-19T12:34:25.022Z,55.3381
2018-05-19T12:35:29.612Z,55.3381
2018-05-19T12:36:35.593Z,55.0871
2018-05-19T12:37:40.763Z,54.585
2018-05-19T12:38:45.621Z,55.5891
2018-05-19T12:39:51.505Z,55.922
2018-05-19T12:40:56.705Z,55.3381
2018-05-19T12:42:01.381Z,55.5891
2018-05-19T12:43:06.261Z,55.5891
2018-05-19T12:44:10.881Z,54.585
2018-05-19T12:45:16.317Z,55.0871
2018-05-19T12:46:21.594Z,55.922
2018-05-19T12:47:26.186Z,55.922
2018-05-19T12:48:31.885Z,55.3381
2018-05-19T12:49:37.349Z,55.3381
2018-05-19T12:50:42.784Z,55.922
2018-05-19T12:51:48.739Z,55.5891
2018-05-19T12:52:53.889Z,55.0871
2018-05-19T12:53:59.027Z,55.8401
2018-05-19T12:55:03.882Z,55.3381
2018-05-19T12:56:08.747Z,56.9288
2018-05-19T12:57:13.625Z,55.922
2018-05-19T12:58:19.118Z,56.6777
2018-05-19T12:59:24.556Z,55.5891
2018-05-19T13:00:30.193Z,55.3381
2018-05-19T13:01:35.386Z,55.3381
2018-05-19T13:02:40.545Z,55.8401
2018-05-19T13:03:45.969Z,54.334
2018-05-19T13:04:50.567Z,54.585
2018-05-19T13:05:56.015Z,55.5891
2018-05-19T13:07:01.523Z,55.3381
2018-05-19T13:08:05.847Z,55.3381
2018-05-19T13:09:10.704Z,55.3381
2018-05-19T13:10:15.548Z,54.836
2018-05-19T13:11:20.429Z,55.3381
2018-05-19T13:12:40.778Z,55.0871
2018-05-19T13:13:46.029Z,55.5891
2018-05-19T13:14:51.462Z,55.922
2018-05-19T13:15:56.603Z,55.0871
2018-05-19T13:17:01.481Z,56.0066